createdAt,value
2022-10-20T00:01:27.541Z,96352.00
2022-10-20T00:03:57.182Z,96314.19
2022-10-20T00:06:44.237Z,96353.81
2022-10-20T00:09:12.024Z,96300.97
2022-10-20T00:11:40.266Z,96298.59
2022-10-20T00:14:08.167Z,96202.34
2022-10-20T00:16:39.053Z,96209.66
2022-10-20T00:19:08.565Z,96305.91
2022-10-20T00:21:36.477Z,96180.75
2022-10-20T00:24:05.061Z,96246.19
2022-10-20T00:26:33.990Z,96283.19
2022-10-20T00:29:05.273Z,96365.84
2022-10-20T00:31:33.224Z,96339.03
2022-10-20T00:34:01.051Z,96173.84
2022-10-20T00:36:30.493Z,96168.63
2022-10-20T00:39:00.412Z,96190.47
2022-10-20T00:41:30.107Z,96173.28
2022-10-20T00:44:00.183Z,96190.63
2022-10-20T00:46:33.709Z,96203.69
2022-10-20T00:49:04.273Z,96210.84
2022-10-20T00:51:35.055Z,96169.63
2022-10-20T00:54:09.019Z,96232.97
2022-10-20T00:56:40.101Z,96242.03
2022-10-20T00:59:07.995Z,96269.22
2022-10-20T01:01:36.286Z,96314.63
2022-10-20T01:04:04.591Z,96282.91
2022-10-20T01:06:33.756Z,96283.97
2022-10-20T01:09:01.903Z,96302.09
2022-10-20T01:11:41.244Z,96282.34
2022-10-20T01:14:25.635Z,96272.66
2022-10-20T01:17:03.113Z,96253.41
2022-10-20T01:20:21.930Z,96295.72
2022-10-20T01:23:18.428Z,96267.09
2022-10-20T01:26:09.152Z,96240.88
2022-10-20T01:28:43.399Z,96217.19
2022-10-20T01:32:03.257Z,96304.47
2022-10-20T01:34:38.097Z,96234.69
2022-10-20T01:37:23.452Z,96204.75
2022-10-20T01:40:10.986Z,96289.28
2022-10-20T01:42:42.748Z,96305.91
2022-10-20T01:45:15.983Z,96255.44
2022-10-20T01:47:45.855Z,96163.72
2022-10-20T01:50:15.067Z,96295.00
2022-10-20T01:52:42.854Z,96219.31
2022-10-20T01:55:15.309Z,96222.00
2022-10-20T01:57:58.377Z,96297.78
2022-10-20T02:00:27.683Z,96243.03
2022-10-20T02:03:26.383Z,96286.44
2022-10-20T02:06:05.989Z,96281.28
2022-10-20T02:08:39.520Z,96130.09
2022-10-20T02:11:43.783Z,96274.50
2022-10-20T02:14:14.112Z,96234.13
2022-10-20T02:16:48.382Z,96112.56
2022-10-20T02:19:20.523Z,96273.75
2022-10-20T02:21:49.636Z,96209.84
2022-10-20T02:24:19.625Z,96120.59
2022-10-20T02:26:47.388Z,96175.81
2022-10-20T02:29:17.544Z,96228.91
2022-10-20T02:31:47.717Z,96125.31
2022-10-20T02:34:16.131Z,96167.72
2022-10-20T02:36:45.349Z,96236.00
2022-10-20T02:39:13.229Z,96243.09
2022-10-20T02:41:41.054Z,96165.13
2022-10-20T02:44:08.832Z,96252.41
2022-10-20T02:46:36.579Z,96062.19
2022-10-20T02:49:05.713Z,96222.91
2022-10-20T02:51:33.485Z,96152.84
2022-10-20T02:54:01.205Z,96151.78
2022-10-20T02:56:30.957Z,96196.72
2022-10-20T02:58:59.240Z,96191.97
2022-10-20T03:01:27.084Z,96214.72
2022-10-20T03:03:58.572Z,96063.88
2022-10-20T03:06:27.972Z,96126.81
2022-10-20T03:08:55.837Z,96162.69
2022-10-20T03:11:23.720Z,96112.94
2022-10-20T03:13:51.479Z,96082.03
2022-10-20T03:16:19.256Z,96105.97
2022-10-20T03:18:46.981Z,96130.63
2022-10-20T03:21:15.021Z,96112.31
2022-10-20T03:23:44.462Z,96227.28
2022-10-20T03:26:13.061Z,96244.16
2022-10-20T03:28:41.451Z,96252.34
2022-10-20T03:31:10.136Z,96239.53
2022-10-20T03:33:37.930Z,96251.56
2022-10-20T03:36:06.779Z,96242.81
2022-10-20T03:38:34.507Z,96265.50
2022-10-20T03:41:04.067Z,96144.28
2022-10-20T03:43:31.810Z,96123.63
2022-10-20T03:46:04.411Z,96263.16
2022-10-20T03:48:33.136Z,96120.69
2022-10-20T03:51:01.840Z,96130.81
2022-10-20T03:53:29.850Z,96132.91
2022-10-20T03:55:57.717Z,96265.94
2022-10-20T03:58:26.859Z,96144.53
2022-10-20T04:00:55.398Z,96127.09
2022-10-20T04:03:23.113Z,96137.88
2022-10-20T04:06:20.823Z,96231.66
2022-10-20T04:08:48.594Z,96222.19
2022-10-20T04:11:16.387Z,96077.16
2022-10-20T04:13:47.568Z,96104.84
2022-10-20T04:16:15.337Z,96096.84
2022-10-20T04:18:43.042Z,96229.53
2022-10-20T04:21:10.804Z,96242.06
2022-10-20T04:23:38.529Z,96222.25
2022-10-20T04:26:10.647Z,96157.16
2022-10-20T04:28:38.740Z,96173.91
2022-10-20T04:31:08.791Z,96222.28
2022-10-20T04:33:37.044Z,96158.94
2022-10-20T04:36:07.481Z,96141.84
2022-10-20T04:38:36.023Z,96149.50
2022-10-20T04:41:05.374Z,96075.44
2022-10-20T04:43:33.611Z,96165.53
2022-10-20T04:46:05.314Z,96140.56
2022-10-20T04:48:40.467Z,96126.66
2022-10-20T04:51:10.315Z,96145.03
2022-10-20T04:54:15.868Z,96203.31
2022-10-20T04:56:43.626Z,96205.69
2022-10-20T04:59:13.592Z,96143.47
2022-10-20T05:01:41.942Z,96087.75
2022-10-20T05:04:12.104Z,96156.63
2022-10-20T05:06:40.081Z,96106.13
2022-10-20T05:09:08.193Z,96193.38
2022-10-20T05:11:38.362Z,96171.78
2022-10-20T05:14:06.069Z,96195.97
2022-10-20T05:17:05.245Z,96192.03
2022-10-20T05:19:36.905Z,96193.06
2022-10-20T05:22:04.556Z,96123.47
2022-10-20T05:24:36.136Z,96164.22
2022-10-20T05:27:03.974Z,96157.72
2022-10-20T05:29:31.878Z,96056.22
2022-10-20T05:31:59.643Z,96003.97
2022-10-20T05:34:27.411Z,96085.38
2022-10-20T05:36:56.520Z,96135.84
2022-10-20T05:39:24.591Z,96064.94
2022-10-20T05:41:52.332Z,96078.38
2022-10-20T05:44:35.204Z,96189.22
2022-10-20T05:47:02.949Z,96119.63
2022-10-20T05:49:30.838Z,96066.78
2022-10-20T05:51:59.974Z,96098.81
2022-10-20T05:54:27.784Z,96184.75
2022-10-20T05:56:55.533Z,96105.19
2022-10-20T05:59:23.294Z,96184.50
2022-10-20T06:01:52.821Z,96128.25
2022-10-20T06:04:23.449Z,96189.25
2022-10-20T06:06:51.609Z,96147.78
2022-10-20T06:09:21.477Z,96187.94
2022-10-20T06:11:49.679Z,96104.69
2022-10-20T06:14:18.278Z,96190.31
2022-10-20T06:17:12.791Z,96188.47
2022-10-20T06:19:40.461Z,96187.69
2022-10-20T06:22:08.122Z,96148.31
2022-10-20T06:24:37.229Z,96162.53
2022-10-20T06:27:05.057Z,96126.34
2022-10-20T06:29:32.743Z,96158.06
2022-10-20T06:32:00.485Z,96121.09
2022-10-20T06:34:28.190Z,96112.63
2022-10-20T06:36:55.932Z,96193.03
2022-10-20T06:39:25.244Z,96189.34
2022-10-20T06:41:55.898Z,96044.06
2022-10-20T06:44:25.333Z,96126.59
2022-10-20T06:46:53.412Z,96106.59
2022-10-20T06:49:21.625Z,96130.75
2022-10-20T06:51:49.777Z,96169.41
2022-10-20T06:54:18.229Z,96170.41
2022-10-20T06:56:45.974Z,96101.06
2022-10-20T06:59:15.100Z,96052.16
2022-10-20T07:01:42.930Z,96166.44
2022-10-20T07:08:23.911Z,96175.06
2022-10-20T07:10:59.595Z,96173.22
2022-10-20T07:13:28.230Z,96101.81
2022-10-20T07:15:58.315Z,96162.97
2022-10-20T07:18:27.304Z,96110.69
2022-10-20T07:20:59.035Z,96096.97
2022-10-20T07:23:27.192Z,96094.06
2022-10-20T07:26:01.883Z,96184.47
2022-10-20T07:28:29.766Z,96056.03
2022-10-20T07:30:59.779Z,96109.63
2022-10-20T07:33:27.700Z,96004.75
2022-10-20T07:35:55.426Z,96066.22
2022-10-20T07:38:23.269Z,96182.13
2022-10-20T07:40:50.964Z,96177.41
2022-10-20T07:43:18.731Z,96109.31
2022-10-20T07:45:46.805Z,96054.09
2022-10-20T07:48:15.925Z,96106.16
2022-10-20T07:50:43.640Z,96175.47
2022-10-20T07:53:11.384Z,96123.88
2022-10-20T07:55:39.481Z,96039.81
2022-10-20T07:58:07.359Z,96137.75
2022-10-20T08:00:35.191Z,96150.34
2022-10-20T08:03:10.506Z,96161.63
2022-10-20T08:05:39.573Z,96165.25
2022-10-20T08:08:07.482Z,96092.06
2022-10-20T08:10:35.253Z,96078.56
2022-10-20T08:13:03.015Z,96135.81
2022-10-20T08:15:30.830Z,96177.34
2022-10-20T08:17:58.616Z,96088.63
2022-10-20T08:20:28.742Z,96159.44
2022-10-20T08:22:57.864Z,96164.22
2022-10-20T08:25:26.036Z,96163.34
2022-10-20T08:27:53.901Z,96044.97
2022-10-20T08:30:24.140Z,96040.25
2022-10-20T08:32:52.658Z,96110.34
2022-10-20T08:35:20.562Z,96057.34
2022-10-20T08:37:48.554Z,96018.25
2022-10-20T08:40:21.253Z,96078.13
2022-10-20T08:42:49.746Z,96053.94
2022-10-20T08:45:20.099Z,96163.72
2022-10-20T08:47:50.227Z,96027.44
2022-10-20T08:50:19.825Z,96154.28
2022-10-20T08:52:51.977Z,96052.97
2022-10-20T08:55:27.351Z,96083.66
2022-10-20T08:57:59.616Z,96038.28
2022-10-20T09:00:28.583Z,96032.91
2022-10-20T09:02:57.380Z,96007.47
2022-10-20T09:05:30.023Z,96018.78
2022-10-20T09:07:58.376Z,96163.44
2022-10-20T09:10:32.641Z,96012.91
2022-10-20T09:13:02.087Z,96150.38
2022-10-20T09:15:30.652Z,96137.19
2022-10-20T09:18:05.228Z,96028.47
2022-10-20T09:20:37.389Z,96086.78
2022-10-20T09:23:16.538Z,96053.72
2022-10-20T09:25:52.614Z,96051.56
2022-10-20T09:28:24.378Z,95976.69
2022-10-20T09:30:52.486Z,96078.16
2022-10-20T09:33:29.702Z,96153.22
2022-10-20T09:36:05.412Z,95999.56
2022-10-20T09:38:36.099Z,96061.09
2022-10-20T09:41:12.384Z,96151.94
2022-10-20T09:43:42.633Z,96106.97
2022-10-20T09:46:12.733Z,96051.50
2022-10-20T09:48:43.589Z,96181.09
2022-10-20T09:51:16.241Z,96060.16
2022-10-20T09:53:52.718Z,95992.97
2022-10-20T09:56:32.178Z,96091.81
2022-10-20T09:59:02.810Z,96056.72
2022-10-20T10:01:57.785Z,96126.38
2022-10-20T10:04:37.503Z,96048.03
2022-10-20T10:07:07.282Z,96048.69
2022-10-20T10:09:37.882Z,96119.44
2022-10-20T10:12:17.539Z,96036.03
2022-10-20T10:14:52.122Z,96116.47
2022-10-20T10:17:30.389Z,96053.69
2022-10-20T10:19:58.361Z,95998.03
2022-10-20T10:22:26.506Z,96125.53
2022-10-20T10:24:56.786Z,96077.13
2022-10-20T10:27:28.894Z,96084.28
2022-10-20T10:29:57.925Z,96037.91
2022-10-20T10:32:27.556Z,96066.50
2022-10-20T10:35:23.581Z,96069.00
2022-10-20T10:37:52.938Z,96084.63
2022-10-20T10:40:24.264Z,95996.00
2022-10-20T10:43:07.747Z,96124.00
2022-10-20T10:45:46.263Z,96049.78
2022-10-20T10:48:32.254Z,96035.47
2022-10-20T10:51:01.936Z,95989.16
2022-10-20T10:53:43.624Z,95977.56
2022-10-20T10:56:20.490Z,96010.38
2022-10-20T10:58:57.028Z,95933.84
2022-10-20T11:01:52.141Z,96059.25
2022-10-20T11:04:44.175Z,96033.53
2022-10-20T11:07:22.197Z,95990.28
2022-10-20T11:10:02.847Z,95995.38
2022-10-20T11:13:00.519Z,96059.53
2022-10-20T11:15:44.069Z,96020.34
2022-10-20T11:18:23.544Z,96057.19
2022-10-20T11:20:59.598Z,95982.84
2022-10-20T11:23:58.669Z,96019.25
2022-10-20T11:26:29.693Z,95991.28
2022-10-20T11:28:59.195Z,95992.13
2022-10-20T11:31:35.157Z,96061.13
2022-10-20T11:34:06.812Z,96057.38
2022-10-20T11:36:40.169Z,95992.63
2022-10-20T11:39:15.160Z,96004.22
2022-10-20T11:41:49.260Z,96056.22
2022-10-20T11:44:22.848Z,95979.25
2022-10-20T11:46:59.118Z,96011.22
2022-10-20T11:49:27.811Z,95951.38
2022-10-20T11:52:25.141Z,96001.28
2022-10-20T11:55:24.938Z,96013.63
2022-10-20T11:58:11.615Z,96002.41
2022-10-20T12:01:00.854Z,95966.97
2022-10-20T12:03:56.074Z,96041.63
2022-10-20T12:06:35.970Z,95924.75
2022-10-20T12:09:34.881Z,95987.63
2022-10-20T12:12:06.513Z,96008.38
2022-10-20T12:14:38.866Z,95933.06
2022-10-20T12:17:42.722Z,96010.06
2022-10-20T12:21:01.629Z,96009.13
2022-10-20T12:24:02.422Z,96009.97
2022-10-20T12:26:55.768Z,96003.09
2022-10-20T12:29:57.591Z,96004.38
2022-10-20T12:32:54.776Z,96008.75
2022-10-20T12:36:01.220Z,96009.34
2022-10-20T12:38:30.894Z,95955.75
2022-10-20T12:41:03.618Z,95998.75
2022-10-20T12:43:48.804Z,95923.56
2022-10-20T12:46:23.261Z,95918.84
2022-10-20T12:48:57.386Z,95989.84
2022-10-20T12:51:36.118Z,95998.91
2022-10-20T12:54:09.381Z,96005.31
2022-10-20T12:56:41.973Z,96002.66
2022-10-20T12:59:24.511Z,95978.28
2022-10-20T13:02:35.084Z,95982.03
2022-10-20T13:05:24.422Z,95960.22
2022-10-20T13:08:18.365Z,95985.91
2022-10-20T13:10:46.649Z,95964.31
2022-10-20T13:13:52.039Z,95991.41
2022-10-20T13:16:22.914Z,95982.97
2022-10-20T13:18:53.200Z,95856.66
2022-10-20T13:21:29.655Z,95867.22
2022-10-20T13:24:05.038Z,96002.69
2022-10-20T13:26:38.571Z,95879.41
2022-10-20T13:29:14.831Z,95991.84
2022-10-20T13:31:48.718Z,95974.28
2022-10-20T13:34:23.422Z,96009.22
2022-10-20T13:37:02.533Z,95937.63
2022-10-20T13:39:38.531Z,96004.75
2022-10-20T13:42:19.818Z,95923.16
2022-10-20T13:45:20.488Z,96014.47
2022-10-20T13:47:58.636Z,95912.50
2022-10-20T13:50:31.465Z,95964.47
2022-10-20T13:53:02.992Z,95977.50
2022-10-20T13:55:58.402Z,95968.06
2022-10-20T13:58:27.186Z,96004.88
2022-10-20T14:01:03.309Z,96031.19
2022-10-20T14:03:32.784Z,95985.38
2022-10-20T14:06:00.589Z,95881.25
2022-10-20T14:08:28.617Z,95939.50
2022-10-20T14:10:59.161Z,96035.31
2022-10-20T14:13:31.386Z,95975.94
2022-10-20T14:16:01.984Z,96031.78
2022-10-20T14:18:31.795Z,96030.22
2022-10-20T14:21:02.819Z,96034.63
2022-10-20T14:23:36.082Z,96013.59
2022-10-20T14:26:07.200Z,96028.19
2022-10-20T14:28:36.902Z,96026.34
2022-10-20T14:31:07.373Z,95975.34
2022-10-20T14:33:44.455Z,96024.53
2022-10-20T14:36:21.032Z,96032.38
2022-10-20T14:38:50.914Z,96024.50
2022-10-20T14:41:25.837Z,96038.72
2022-10-20T14:43:56.712Z,96030.16
2022-10-20T14:46:30.859Z,95998.84
2022-10-20T14:49:00.369Z,96014.56
2022-10-20T14:51:30.579Z,96020.34
2022-10-20T14:54:17.086Z,96004.47
2022-10-20T14:56:46.733Z,96016.56
2022-10-20T14:59:15.829Z,96023.56
2022-10-20T15:01:58.329Z,96009.47
2022-10-20T15:04:29.959Z,96024.63
2022-10-20T15:07:12.189Z,95999.75
2022-10-20T15:09:44.590Z,96029.44
2022-10-20T15:12:18.373Z,96024.13
2022-10-20T15:14:48.695Z,95978.41
2022-10-20T15:17:38.809Z,95983.38
2022-10-20T15:20:33.233Z,95986.88
2022-10-20T15:23:02.686Z,95981.44
2022-10-20T15:25:32.868Z,95947.47
2022-10-20T15:28:00.910Z,95966.31
2022-10-20T15:30:28.748Z,95958.28
2022-10-20T15:32:57.823Z,95951.63
2022-10-20T15:35:25.712Z,95904.13
2022-10-20T15:37:54.629Z,95943.44
2022-10-20T15:40:22.667Z,95946.53
2022-10-20T15:42:50.396Z,95961.16
2022-10-20T15:45:20.942Z,95969.66
2022-10-20T15:47:49.320Z,95945.88
2022-10-20T15:50:20.595Z,95935.25
2022-10-20T15:52:50.626Z,95943.56
2022-10-20T15:55:23.378Z,95907.25
2022-10-20T15:57:51.757Z,95920.41
2022-10-20T16:00:21.967Z,95916.91
2022-10-20T16:02:50.593Z,95933.97
2022-10-20T16:05:21.461Z,95931.63
2022-10-20T16:07:49.313Z,95919.09
2022-10-20T16:10:17.061Z,95926.91
2022-10-20T16:12:44.811Z,95950.50
2022-10-20T16:15:12.627Z,95922.13
2022-10-20T16:17:42.490Z,95919.81
2022-10-20T16:20:11.110Z,95931.88
2022-10-20T16:22:40.303Z,95934.16
2022-10-20T16:25:08.770Z,95876.22
2022-10-20T16:27:36.839Z,95887.88
2022-10-20T16:30:05.863Z,95923.56
2022-10-20T16:32:35.471Z,95923.19
2022-10-20T16:35:04.089Z,95913.13
2022-10-20T16:37:32.877Z,95872.81
2022-10-20T16:40:02.283Z,95908.28
2022-10-20T16:42:31.278Z,95910.41
2022-10-20T16:44:59.674Z,95895.09
2022-10-20T16:47:27.426Z,95823.81
2022-10-20T16:49:55.174Z,95858.34
2022-10-20T16:52:23.116Z,95878.41
2022-10-20T16:54:53.634Z,95843.34
2022-10-20T16:57:23.005Z,95890.16
2022-10-20T16:59:50.722Z,95880.63
2022-10-20T17:02:19.767Z,95845.66
2022-10-20T17:04:49.145Z,95867.72
2022-10-20T17:07:17.207Z,95865.69
2022-10-20T17:09:45.211Z,95870.94
2022-10-20T17:12:12.953Z,95846.34
2022-10-20T17:14:42.911Z,95872.59
2022-10-20T17:17:10.643Z,95896.66
2022-10-20T17:19:40.933Z,95879.84
2022-10-20T17:24:38.803Z,95900.81
2022-10-20T17:27:06.497Z,95906.41
2022-10-20T17:29:34.229Z,95875.16
2022-10-20T17:32:03.291Z,95872.72
2022-10-20T17:34:31.011Z,95878.41
2022-10-20T17:36:59.328Z,95880.84
2022-10-20T17:39:28.473Z,95914.00
2022-10-20T17:41:56.244Z,95888.19
2022-10-20T17:44:24.440Z,95808.84
2022-10-20T17:46:52.182Z,95904.72
2022-10-20T17:49:21.426Z,95878.00
2022-10-20T17:51:49.189Z,95842.25
2022-10-20T17:54:17.010Z,95894.69
2022-10-20T17:56:44.817Z,95828.91
2022-10-20T18:01:41.662Z,95872.53
2022-10-20T18:04:14.570Z,95852.59
2022-10-20T18:06:44.765Z,95869.78
2022-10-20T18:09:15.051Z,95865.06
2022-10-20T18:11:46.761Z,95850.81
2022-10-20T18:14:14.875Z,95820.22
2022-10-20T18:16:43.118Z,95855.72
2022-10-20T18:19:14.921Z,95815.41
2022-10-20T18:21:44.374Z,95781.06
2022-10-20T18:24:14.963Z,95820.13
2022-10-20T18:26:43.802Z,95858.66
2022-10-20T18:29:12.487Z,95848.16
2022-10-20T18:31:42.498Z,95797.66
2022-10-20T18:34:13.740Z,95826.81
2022-10-20T18:36:45.010Z,95842.13
2022-10-20T18:39:15.742Z,95860.13
2022-10-20T18:41:45.566Z,95841.44
2022-10-20T18:44:15.126Z,95789.16
2022-10-20T18:46:43.206Z,95802.47
2022-10-20T18:49:14.196Z,95852.81
2022-10-20T18:51:42.466Z,95848.13
2022-10-20T18:54:10.793Z,95820.94
2022-10-20T18:56:40.307Z,95784.53
2022-10-20T18:59:10.576Z,95834.59
2022-10-20T19:01:41.003Z,95839.69
2022-10-20T19:04:11.052Z,95826.91
2022-10-20T19:06:41.013Z,95833.22
2022-10-20T19:09:11.014Z,95848.31
2022-10-20T19:11:40.572Z,95842.53
2022-10-20T19:14:11.417Z,95842.06
2022-10-20T19:16:40.730Z,95824.81
2022-10-20T19:19:09.898Z,95838.44
2022-10-20T19:21:37.987Z,95809.38
2022-10-20T19:24:08.291Z,95832.47
2022-10-20T19:26:39.202Z,95800.34
2022-10-20T19:29:10.655Z,95843.84
2022-10-20T19:31:41.054Z,95747.84
2022-10-20T19:34:11.253Z,95804.25
2022-10-20T19:36:41.090Z,95841.31
2022-10-20T19:39:12.469Z,95840.91
2022-10-20T19:41:41.056Z,95789.28
2022-10-20T19:44:13.009Z,95769.28
2022-10-20T19:46:41.004Z,95847.88
2022-10-20T19:49:09.000Z,95806.50
2022-10-20T19:51:36.793Z,95832.28
2022-10-20T19:54:05.246Z,95847.38
2022-10-20T19:56:33.115Z,95857.16
2022-10-20T19:59:01.197Z,95860.50
2022-10-20T20:01:30.575Z,95864.66
2022-10-20T20:03:59.647Z,95859.75
2022-10-20T20:06:28.826Z,95853.44
2022-10-20T20:08:59.749Z,95849.31
2022-10-20T20:11:30.713Z,95853.25
2022-10-20T20:14:01.214Z,95820.47
2022-10-20T20:16:30.978Z,95839.00
2022-10-20T20:18:59.071Z,95795.63
2022-10-20T20:21:27.506Z,95849.47
2022-10-20T20:24:00.739Z,95833.78
2022-10-20T20:26:29.847Z,95864.25
2022-10-20T20:29:00.517Z,95810.47
2022-10-20T20:31:30.659Z,95882.00
2022-10-20T20:33:58.664Z,95884.16
2022-10-20T20:36:27.892Z,95891.28
2022-10-20T20:38:57.486Z,95876.16
